createdAt,value
2022-07-29T00:04:08.827Z,67227.19
2022-07-29T00:09:12.839Z,67186.72
2022-07-29T00:14:17.135Z,67184.00
2022-07-29T00:19:22.581Z,67225.50
2022-07-29T00:24:26.905Z,67201.34
2022-07-29T00:29:34.097Z,67217.53
2022-07-29T00:34:57.066Z,67240.28
2022-07-29T00:40:01.893Z,67164.63
2022-07-29T00:45:06.668Z,67180.81
2022-07-29T00:50:13.579Z,67162.97
2022-07-29T00:55:18.753Z,67200.19
2022-07-29T01:00:24.754Z,67211.53
2022-07-29T01:05:49.814Z,67203.50
2022-07-29T01:10:56.362Z,67152.78
2022-07-29T01:16:05.278Z,67128.94
2022-07-29T01:21:29.987Z,67153.78
2022-07-29T01:26:43.422Z,67131.66
2022-07-29T01:31:59.047Z,67107.41
2022-07-29T01:37:11.605Z,67094.34
2022-07-29T01:42:22.888Z,67083.16
2022-07-29T01:47:35.689Z,67091.78
2022-07-29T01:52:44.945Z,67110.59
2022-07-29T01:57:51.875Z,67118.22
2022-07-29T02:02:59.333Z,67120.28
2022-07-29T02:08:04.352Z,67102.03
2022-07-29T02:13:09.575Z,67109.50
2022-07-29T02:18:18.204Z,67135.50
2022-07-29T02:23:24.371Z,67115.94
2022-07-29T02:28:30.659Z,67080.47
2022-07-29T02:33:37.122Z,67097.56
2022-07-29T02:38:52.657Z,67090.16
2022-07-29T02:43:59.286Z,67093.34
2022-07-29T02:49:12.159Z,67090.09
2022-07-29T02:54:27.821Z,67067.59
2022-07-29T02:59:36.968Z,67042.16
2022-07-29T03:04:45.594Z,67025.44
2022-07-29T03:09:51.093Z,67062.59
2022-07-29T03:14:55.654Z,67037.31
2022-07-29T03:20:01.530Z,67081.38
2022-07-29T03:25:10.365Z,67073.44
2022-07-29T03:30:21.736Z,67093.41
2022-07-29T03:35:27.805Z,67012.34
2022-07-29T03:40:36.268Z,67007.03
2022-07-29T03:45:43.175Z,67019.44
2022-07-29T03:50:48.629Z,67029.75
2022-07-29T03:55:56.071Z,67088.47
2022-07-29T04:01:00.548Z,67117.75
2022-07-29T04:06:07.736Z,67157.50
2022-07-29T04:11:11.691Z,67146.75
2022-07-29T04:16:15.563Z,67131.16
2022-07-29T04:21:20.754Z,67224.56
2022-07-29T04:26:24.473Z,67198.56
2022-07-29T04:31:28.504Z,67177.59
2022-07-29T04:36:33.615Z,67198.56
2022-07-29T04:41:38.099Z,67108.97
2022-07-29T04:46:41.883Z,67180.81
2022-07-29T04:51:46.948Z,67058.25
2022-07-29T04:56:50.860Z,67117.66
2022-07-29T05:01:54.698Z,67207.69
2022-07-29T05:07:00.572Z,67246.72
2022-07-29T05:12:04.460Z,67287.63
2022-07-29T05:17:08.863Z,67290.41
2022-07-29T05:22:14.066Z,67279.59
2022-07-29T05:27:18.000Z,67223.88
2022-07-29T05:32:21.746Z,67306.09
2022-07-29T05:37:26.753Z,67382.88
2022-07-29T05:42:30.371Z,67425.03
2022-07-29T05:47:34.473Z,67438.44
2022-07-29T05:52:40.518Z,67340.72
2022-07-29T05:57:44.531Z,67341.66
2022-07-29T06:02:48.165Z,67427.69
2022-07-29T06:07:54.233Z,67403.28
2022-07-29T06:12:58.019Z,67362.28
2022-07-29T06:18:02.479Z,67347.81
2022-07-29T06:23:08.997Z,67392.59
2022-07-29T06:28:13.717Z,67441.25
2022-07-29T06:33:21.407Z,67473.03
2022-07-29T06:38:31.360Z,67501.25
2022-07-29T06:43:45.614Z,67493.09
2022-07-29T06:48:54.964Z,67520.72
2022-07-29T06:54:03.381Z,67559.72
2022-07-29T06:59:09.446Z,67521.81
2022-07-29T07:04:14.553Z,67476.34
2022-07-29T07:09:20.549Z,67438.97
2022-07-29T07:14:24.497Z,67435.81
2022-07-29T07:19:28.542Z,67486.69
2022-07-29T07:24:34.112Z,67557.44
2022-07-29T07:29:38.138Z,67580.84
2022-07-29T07:34:42.078Z,67525.16
2022-07-29T07:39:47.662Z,67574.81
2022-07-29T07:45:12.498Z,67523.41
2022-07-29T07:50:18.883Z,67580.22
2022-07-29T07:55:24.758Z,67651.16
2022-07-29T08:00:28.408Z,67725.97
2022-07-29T08:05:33.462Z,67708.06
2022-07-29T08:10:56.923Z,67751.38
2022-07-29T08:16:02.850Z,67734.00
2022-07-29T08:21:07.388Z,67877.13
2022-07-29T08:26:14.179Z,67833.25
2022-07-29T08:31:19.189Z,67952.59
2022-07-29T08:36:23.271Z,67840.84
2022-07-29T08:41:29.169Z,67905.34
2022-07-29T08:46:33.103Z,67941.13
2022-07-29T08:51:47.101Z,67899.34
2022-07-29T08:56:55.651Z,67859.81
2022-07-29T09:02:01.848Z,67992.16
2022-07-29T09:07:08.519Z,68004.75
2022-07-29T09:12:29.350Z,68036.09
2022-07-29T09:17:44.751Z,67966.06
2022-07-29T09:22:50.492Z,67902.66
2022-07-29T09:27:55.816Z,67942.75
2022-07-29T09:33:02.446Z,67999.75
2022-07-29T09:38:13.764Z,67947.72
2022-07-29T09:43:19.229Z,68004.63
2022-07-29T09:48:25.755Z,68009.03
2022-07-29T09:53:34.636Z,67984.63
2022-07-29T09:58:40.083Z,67959.63
2022-07-29T10:03:54.065Z,68032.34
2022-07-29T10:09:10.001Z,68092.03
2022-07-29T10:14:16.689Z,68020.91
2022-07-29T10:19:20.731Z,68058.28
2022-07-29T10:24:25.699Z,68156.66
2022-07-29T10:29:32.506Z,68165.41
2022-07-29T10:34:50.848Z,68199.53
2022-07-29T10:40:23.665Z,68248.44
2022-07-29T10:45:31.717Z,68252.25
2022-07-29T10:50:59.894Z,68249.56
2022-07-29T10:56:06.332Z,68194.13
2022-07-29T11:01:39.006Z,68257.69
2022-07-29T11:07:10.263Z,68210.97
2022-07-29T11:12:48.015Z,68197.56
2022-07-29T11:18:15.194Z,68211.03
2022-07-29T11:23:25.716Z,68164.84
2022-07-29T11:28:31.638Z,68229.88
2022-07-29T11:33:56.280Z,68573.22
2022-07-29T11:39:36.587Z,68408.34
2022-07-29T11:44:57.317Z,68621.72
2022-07-29T11:50:04.885Z,68545.47
2022-07-29T11:55:16.892Z,68690.75
2022-07-29T12:00:30.841Z,68709.31
2022-07-29T12:05:48.273Z,68713.69
2022-07-29T12:10:55.811Z,68560.66
2022-07-29T12:16:02.348Z,68716.94
2022-07-29T12:21:09.357Z,68817.78
2022-07-29T12:26:25.568Z,68751.78
2022-07-29T12:31:41.908Z,68741.97
2022-07-29T12:36:50.428Z,68879.38
2022-07-29T12:41:54.323Z,68883.75
2022-07-29T12:47:08.902Z,68844.47
2022-07-29T12:52:33.220Z,68816.16
2022-07-29T12:57:47.681Z,68948.69
2022-07-29T13:02:57.715Z,69000.44
2022-07-29T13:08:20.061Z,68932.81
2022-07-29T13:13:26.589Z,68726.19
2022-07-29T13:18:31.962Z,68851.56
2022-07-29T13:23:38.145Z,68737.09
2022-07-29T13:28:44.241Z,68654.84
2022-07-29T13:33:48.947Z,68773.66
2022-07-29T13:38:54.147Z,68842.84
2022-07-29T13:43:58.022Z,68864.09
2022-07-29T13:49:01.935Z,68886.47
2022-07-29T13:54:07.432Z,68843.94
2022-07-29T13:59:11.582Z,68895.72
2022-07-29T14:04:16.567Z,68933.91
2022-07-29T14:09:21.945Z,68914.88
2022-07-29T14:14:26.151Z,68850.50
2022-07-29T14:19:30.263Z,68840.66
2022-07-29T14:24:37.046Z,68870.69
2022-07-29T14:29:41.256Z,68791.56
2022-07-29T14:34:45.194Z,68840.09
2022-07-29T14:39:50.488Z,68780.13
2022-07-29T14:44:54.930Z,68871.13
2022-07-29T14:49:59.162Z,68951.34
2022-07-29T14:55:06.009Z,68924.09
2022-07-29T15:00:23.818Z,68831.88
2022-07-29T15:05:28.320Z,68783.97
2022-07-29T15:10:33.858Z,68648.81
2022-07-29T15:15:38.064Z,68696.25
2022-07-29T15:20:41.930Z,68743.69
2022-07-29T15:25:47.307Z,68770.34
2022-07-29T15:30:51.167Z,68746.38
2022-07-29T15:35:54.997Z,68705.50
2022-07-29T15:41:00.829Z,68779.06
2022-07-29T15:46:22.461Z,68718.03
2022-07-29T15:51:26.446Z,68664.13
2022-07-29T15:56:31.527Z,68771.97
2022-07-29T16:01:35.434Z,68668.44
2022-07-29T16:06:48.016Z,68528.53
2022-07-29T16:11:54.156Z,68369.13
2022-07-29T16:16:58.383Z,68320.13
2022-07-29T16:22:02.294Z,68269.00
2022-07-29T16:27:07.785Z,68158.25
2022-07-29T16:32:11.886Z,68101.13
2022-07-29T16:37:16.232Z,68089.91
2022-07-29T16:42:44.430Z,68112.63
2022-07-29T16:47:45.112Z,68089.22
2022-07-29T16:52:49.009Z,68081.19
2022-07-29T16:57:54.255Z,68055.06
2022-07-29T17:03:00.056Z,68052.38
2022-07-29T17:08:04.004Z,68023.09
2022-07-29T17:13:09.169Z,68015.91
2022-07-29T17:18:13.697Z,68012.19
2022-07-29T17:23:17.544Z,68059.91
2022-07-29T17:28:22.850Z,68058.81
2022-07-29T17:33:26.697Z,68038.28
2022-07-29T17:38:30.491Z,67961.69
2022-07-29T17:43:35.822Z,67967.66
2022-07-29T17:48:43.462Z,67967.13
2022-07-29T17:53:47.478Z,67991.44
2022-07-29T17:58:53.161Z,67932.94
2022-07-29T18:03:59.979Z,67909.66
2022-07-29T18:09:06.789Z,67909.66
2022-07-29T18:14:11.895Z,67860.25
2022-07-29T18:19:16.235Z,67879.72
2022-07-29T18:24:20.210Z,67853.28
2022-07-29T18:29:25.531Z,67846.72
2022-07-29T18:34:29.163Z,67803.44
2022-07-29T18:39:32.894Z,67848.88
2022-07-29T18:44:43.811Z,67848.88
2022-07-29T18:49:53.099Z,67819.59
2022-07-29T18:54:56.808Z,67817.50
2022-07-29T19:00:02.068Z,67838.09
2022-07-29T19:05:06.072Z,67837.44
2022-07-29T19:10:11.332Z,67836.41
2022-07-29T19:15:20.115Z,67847.78
2022-07-29T19:20:24.442Z,67857.66
2022-07-29T19:25:28.204Z,67860.22
2022-07-29T19:30:35.053Z,67882.53
2022-07-29T19:35:38.572Z,67858.09
2022-07-29T19:40:42.465Z,67872.28
2022-07-29T19:45:47.633Z,67902.56
2022-07-29T19:50:51.465Z,67875.44
2022-07-29T19:55:55.443Z,67818.03
2022-07-29T20:01:00.559Z,67857.56
2022-07-29T20:06:04.569Z,67815.25
2022-07-29T20:11:08.311Z,67788.69
2022-07-29T20:16:13.424Z,67820.63
2022-07-29T20:21:18.466Z,67809.34
2022-07-29T20:26:22.286Z,67695.50
2022-07-29T20:31:27.741Z,67728.66
2022-07-29T20:36:32.197Z,67794.59
2022-07-29T20:41:36.209Z,67755.06
2022-07-29T20:46:41.476Z,67823.97
2022-07-29T20:51:44.942Z,67803.88
2022-07-29T20:56:48.727Z,67815.88
2022-07-29T21:01:55.712Z,67785.56
2022-07-29T21:06:59.617Z,67749.75
2022-07-29T21:12:03.470Z,67738.97
2022-07-29T21:17:11.391Z,67749.16
2022-07-29T21:22:15.085Z,67686.31
2022-07-29T21:27:38.300Z,67701.47
2022-07-29T21:32:43.822Z,67769.19
2022-07-29T21:37:47.430Z,67689.03
2022-07-29T21:42:51.093Z,67667.38
2022-07-29T21:47:56.368Z,67709.06
2022-07-29T21:53:03.215Z,67759.44
2022-07-29T21:58:08.240Z,67770.88
2022-07-29T22:03:13.864Z,67781.59
2022-07-29T22:08:17.610Z,67786.09
2022-07-29T22:13:21.560Z,67781.09
2022-07-29T22:18:26.612Z,67703.59
2022-07-29T22:23:30.335Z,67758.97
2022-07-29T22:28:34.332Z,67771.91
2022-07-29T22:33:39.528Z,67776.81
2022-07-29T22:38:43.102Z,67797.88
2022-07-29T22:43:46.855Z,67643.63
2022-07-29T22:48:51.952Z,67576.97
2022-07-29T22:53:55.797Z,67565.56
2022-07-29T22:58:59.454Z,67480.13
2022-07-29T23:04:04.562Z,67500.16
2022-07-29T23:09:08.461Z,67553.66
2022-07-29T23:14:12.048Z,67588.91
2022-07-29T23:19:17.161Z,67596.44
2022-07-29T23:24:20.822Z,67592.03
2022-07-29T23:29:24.532Z,67639.72
2022-07-29T23:34:29.557Z,67632.69
2022-07-29T23:39:33.277Z,67593.25
2022-07-29T23:44:36.947Z,67628.38
2022-07-29T23:49:42.086Z,67624.69
2022-07-29T23:54:45.699Z,67626.75
2022-07-29T23:59:49.531Z,67621.31
